KVCT/VCT METAR and TAF weather

Enter ICAO airport designator
Station Type Date Time Source
KVCT METAR 2020/01/19 22:51 UTC NOAA

KVCT 192251Z 04009KT 10SM CLR 16/M02 A3041 RMK AO2 SLP297 T01611022 $


Station Type Date Time Source
KVCT Decoded METAR 2020/01/19 22:51 UTC NOAA

VICTORIA REGIONAL AIRPORT, TX, United States (KVCT) 28-52N 96-56W 31M
Jan 19, 2020 - 05:51 PM EST / 2020.01.19 2251 UTC
Wind: from the NE (040 degrees) at 10 MPH (9 KT):0
Visibility: 10 mile(s):0
Sky conditions: clear
Temperature: 61.0 F (16.1 C)
Dew Point: 28.0 F (-2.2 C)
Relative Humidity: 28%
Pressure (altimeter): 30.41 in. Hg (1029 hPa)
ob: KVCT 192251Z 04009KT 10SM CLR 16/M02 A3041 RMK AO2 SLP297 T01611022
cycle: 23

Station Type Date Time Source
KVCT TAF 2020/01/19 18:22 UTC NOAA

TAF KVCT 191720Z 1918/2018 04011G17KT P6SM SKC
FM192200 06008KT P6SM SKC

Example: see airport list